Terminal Aerodrome Forecast
Issued by NWS Bismarck, ND

Home | Current Version | Previous Version | Graphics & Text | Print | Product List | Glossary On
Versions: 1 2 3 4 5 6 7 8 9 10 11 12 13 14 15 16 17 18
000
FTUS43 KBIS 140500
TAFBIS
TAF
KBIS 140531Z 1406/1506 03003KT P6SM SCT035 SCT045
     FM140900 01006KT P6SM VCSH SCT025 BKN035 OVC045
      TEMPO 1410/1414 BKN025 OVC035
     FM141500 35011KT P6SM SCT035 BKN050
     FM142100 33008KT P6SM SCT050
     FM150300 12005KT P6SM SKC=

USA.gov is the U.S. government's official web portal to all federal, state and local government web resources and services.